DAL211 FACT-KATL
Flight info
| Callsign | DAL211 |
|---|---|
| Flight time | N/A |
| Altitude | 32000 |
| Route | IMSOM1B IMSOM UQ36 APKIN UQ15 OKDOG DCT 30S010E/N0495F340 26S005E 22S000W 16S005W 10S010W 05S015W/N0495F360 00N020W DCT BUVUK UL435 BUXON/N0488F380 UL435 BUTUX/M084F380 L435 FIVZE/M084F400 L435 JAINS/N0478F400 AR12 DEDDY DCT HOTHH JJEDI3 |
| Aircraft | B77W/H-SDE1E2E3FGHIJ2J3J4J5M1RWXY/LB1D1 |
Departure
| Time | N/A |
|---|---|
| Airport | Cape Town International Airport (FACT) |
Arrival
| Time | 2026-05-07 09:12 |
|---|---|
| Airport | Hartsfield Jackson Atlanta International Airport (KATL) |
| Time | Latitude | Longitude | Altitude | Speed | Heading |
|---|---|---|---|---|---|
| 2026-05-07 04:04 | 12.59512 | -35.42818 | 36032 ft | 449 kts | 302° |
| 2026-05-07 05:17 | 12.69032 | -35.56222 | 35772 ft | 385 kts | 302° |
| 2026-05-07 05:18 | 12.80993 | -35.73171 | 35841 ft | 364 kts | 301° |
| 2026-05-07 05:18 | 12.93517 | -35.90952 | 36439 ft | 411 kts | 302° |
| 2026-05-07 05:18 | 13.07751 | -36.11163 | 36377 ft | 458 kts | 302° |
| 2026-05-07 05:18 | 13.22903 | -36.32714 | 36097 ft | 471 kts | 302° |
| 2026-05-07 05:19 | 13.37016 | -36.52857 | 35905 ft | 459 kts | 302° |
| 2026-05-07 05:19 | 13.51661 | -36.73786 | 35894 ft | 443 kts | 302° |
| 2026-05-07 05:19 | 13.66039 | -36.94406 | 36051 ft | 446 kts | 303° |
| 2026-05-07 05:19 | 13.80665 | -37.15456 | 36138 ft | 461 kts | 303° |
| 2026-05-07 05:20 | 14.09051 | -37.60136 | 36009 ft | 462 kts | 296° |
| 2026-05-07 05:20 | 14.33086 | -38.06209 | 36070 ft | 457 kts | 297° |
| 2026-05-07 05:21 | 14.45311 | -38.29600 | 36141 ft | 468 kts | 297° |
| 2026-05-07 05:21 | 14.70127 | -38.77273 | 35978 ft | 465 kts | 297° |
| 2026-05-07 05:22 | 14.94168 | -39.23734 | 36091 ft | 459 kts | 297° |
| 2026-05-07 05:22 | 15.06166 | -39.47051 | 36160 ft | 470 kts | 297° |
| 2026-05-07 05:22 | 15.18568 | -39.71192 | 36097 ft | 476 kts | 297° |
| 2026-05-07 05:23 | 15.43056 | -40.18974 | 35968 ft | 462 kts | 298° |
| 2026-05-07 05:23 | 15.55178 | -40.42569 | 36087 ft | 465 kts | 298° |
| 2026-05-07 05:23 | 15.67397 | -40.66472 | 36163 ft | 475 kts | 298° |
| 2026-05-07 05:24 | 15.92335 | -41.15480 | 36014 ft | 477 kts | 298° |
| 2026-05-07 05:24 | 16.04522 | -41.39566 | 35960 ft | 466 kts | 298° |
| 2026-05-07 05:24 | 16.16550 | -41.63409 | 36077 ft | 466 kts | 298° |
| 2026-05-07 05:24 | 16.28699 | -41.87563 | 36166 ft | 477 kts | 298° |
| 2026-05-07 05:25 | 16.41134 | -42.12386 | 36149 ft | 486 kts | 298° |
| 2026-05-07 05:25 | 16.53550 | -42.37279 | 36018 ft | 481 kts | 298° |
| 2026-05-07 05:25 | 16.65766 | -42.61830 | 35977 ft | 472 kts | 298° |
| 2026-05-07 05:26 | 16.89865 | -43.10570 | 36153 ft | 479 kts | 298° |
| 2026-05-07 05:26 | 17.02202 | -43.35629 | 36170 ft | 490 kts | 298° |
| 2026-05-07 05:26 | 17.14624 | -43.60986 | 36065 ft | 487 kts | 298° |
| 2026-05-07 05:27 | 17.38650 | -44.10291 | 36016 ft | 473 kts | 297° |
| 2026-05-07 05:27 | 17.50601 | -44.34964 | 36117 ft | 478 kts | 297° |
| 2026-05-07 05:27 | 17.62689 | -44.60028 | 36178 ft | 486 kts | 297° |
| 2026-05-07 05:28 | 17.87037 | -45.10786 | 36012 ft | 483 kts | 297° |
| 2026-05-07 05:28 | 18.11993 | -45.60110 | 36106 ft | 475 kts | 300° |
| 2026-05-07 05:29 | 18.38199 | -46.08544 | 36106 ft | 477 kts | 299° |
| 2026-05-07 05:29 | 18.51560 | -46.33413 | 37571 ft | 488 kts | 299° |
| 2026-05-07 05:29 | 18.65069 | -46.58657 | 38202 ft | 497 kts | 299° |
| 2026-05-07 05:29 | 18.78597 | -46.84045 | 38090 ft | 493 kts | 299° |
| 2026-05-07 05:30 | 18.91778 | -47.08869 | 37965 ft | 476 kts | 298° |
| 2026-05-07 05:30 | 19.04467 | -47.32878 | 37965 ft | 459 kts | 298° |
| 2026-05-07 05:30 | 19.16859 | -47.56415 | 38120 ft | 459 kts | 298° |
| 2026-05-07 05:30 | 19.29372 | -47.80276 | 38231 ft | 470 kts | 298° |
| 2026-05-07 05:31 | 19.42181 | -48.04788 | 38191 ft | 479 kts | 297° |
| 2026-05-07 05:31 | 19.54990 | -48.29414 | 38069 ft | 475 kts | 297° |
| 2026-05-07 05:31 | 19.67594 | -48.53741 | 38006 ft | 466 kts | 297° |
| 2026-05-07 05:32 | 19.92078 | -49.01315 | 38196 ft | 464 kts | 297° |
| 2026-05-07 05:32 | 20.17195 | -49.50510 | 38145 ft | 478 kts | 296° |
| 2026-05-07 05:33 | 20.42141 | -49.99794 | 38030 ft | 463 kts | 295° |
| 2026-05-07 05:33 | 20.66405 | -50.48169 | 38217 ft | 468 kts | 295° |
| 2026-05-07 05:34 | 20.91267 | -50.98162 | 38116 ft | 476 kts | 295° |
| 2026-05-07 05:34 | 21.15354 | -51.47035 | 38060 ft | 459 kts | 294° |
| 2026-05-07 05:34 | 21.27244 | -51.71344 | 38190 ft | 462 kts | 294° |
| 2026-05-07 05:35 | 21.39381 | -51.96259 | 38238 ft | 471 kts | 294° |
| 2026-05-07 05:35 | 21.63540 | -52.46184 | 38100 ft | 470 kts | 293° |
| 2026-05-07 05:36 | 21.87045 | -52.95248 | 38126 ft | 456 kts | 292° |
| 2026-05-07 05:36 | 22.10541 | -53.44760 | 38244 ft | 472 kts | 292° |
| 2026-05-07 05:37 | 22.34346 | -53.95396 | 38084 ft | 466 kts | 291° |
| 2026-05-07 05:37 | 22.57095 | -54.44277 | 38180 ft | 455 kts | 290° |
| 2026-05-07 05:38 | 22.80091 | -54.94182 | 38254 ft | 469 kts | 290° |
| 2026-05-07 05:38 | 22.91614 | -55.19383 | 38112 ft | 464 kts | 290° |
| 2026-05-07 05:38 | 23.02960 | -55.44315 | 38062 ft | 455 kts | 290° |
| 2026-05-07 05:39 | 23.25125 | -55.93426 | 38232 ft | 457 kts | 290° |
| 2026-05-07 05:39 | 23.47761 | -56.44084 | 38159 ft | 468 kts | 290° |
| 2026-05-07 05:40 | 23.70017 | -56.94437 | 38093 ft | 453 kts | 290° |
| 2026-05-07 05:40 | 23.80920 | -57.19310 | 38212 ft | 455 kts | 291° |
| 2026-05-07 05:40 | 23.91930 | -57.44540 | 38276 ft | 464 kts | 291° |
| 2026-05-07 05:41 | 24.14091 | -57.95734 | 38124 ft | 465 kts | 291° |
| 2026-05-07 05:41 | 24.35644 | -58.46109 | 38118 ft | 450 kts | 291° |
| 2026-05-07 05:41 | 24.46272 | -58.71160 | 38224 ft | 454 kts | 290° |
| 2026-05-07 05:42 | 24.56974 | -58.96520 | 38281 ft | 463 kts | 290° |
| 2026-05-07 05:42 | 24.78523 | -59.48045 | 38086 ft | 457 kts | 291° |
| 2026-05-07 05:42 | 24.88936 | -59.73159 | 38083 ft | 446 kts | 291° |
| 2026-05-07 05:43 | 24.99159 | -59.97960 | 38159 ft | 446 kts | 291° |
| 2026-05-07 05:43 | 25.11166 | -60.22381 | 38216 ft | 457 kts | 296° |
| 2026-05-07 05:43 | 25.23571 | -60.47159 | 38233 ft | 465 kts | 295° |
| 2026-05-07 05:44 | 25.48202 | -60.96997 | 38077 ft | 453 kts | 296° |
| 2026-05-07 05:44 | 25.71622 | -61.44909 | 38192 ft | 445 kts | 296° |
| 2026-05-07 05:45 | 25.74705 | -61.51241 | 38160 ft | 452 kts | 296° |
| 2026-05-07 05:45 | 25.77703 | -61.57413 | 38153 ft | 456 kts | 296° |
| 2026-05-07 05:46 | 25.80716 | -61.63623 | 38150 ft | 457 kts | 296° |
| 2026-05-07 05:46 | 25.83729 | -61.69847 | 38154 ft | 457 kts | 296° |
| 2026-05-07 05:47 | 25.86729 | -61.76051 | 38150 ft | 455 kts | 296° |
| 2026-05-07 05:47 | 25.89716 | -61.82239 | 38148 ft | 454 kts | 296° |
| 2026-05-07 05:48 | 25.92690 | -61.88406 | 38151 ft | 452 kts | 296° |
| 2026-05-07 05:48 | 25.95631 | -61.94517 | 38154 ft | 451 kts | 296° |
| 2026-05-07 05:49 | 25.98588 | -62.00668 | 38146 ft | 450 kts | 296° |
| 2026-05-07 05:49 | 26.01533 | -62.06800 | 38144 ft | 450 kts | 296° |
| 2026-05-07 05:50 | 26.04478 | -62.12943 | 38149 ft | 450 kts | 296° |
| 2026-05-07 05:50 | 26.07420 | -62.19090 | 38151 ft | 450 kts | 296° |
| 2026-05-07 05:51 | 26.10365 | -62.25248 | 38159 ft | 451 kts | 297° |
| 2026-05-07 05:51 | 26.13293 | -62.31381 | 38149 ft | 451 kts | 297° |
| 2026-05-07 05:52 | 26.16238 | -62.37557 | 38145 ft | 451 kts | 297° |
| 2026-05-07 05:52 | 26.17657 | -62.40537 | 38876 ft | 451 kts | 297° |
| 2026-05-07 05:52 | 26.19135 | -62.43640 | 38077 ft | 444 kts | 298° |
| 2026-05-07 05:53 | 26.22012 | -62.49691 | 38130 ft | 445 kts | 298° |
| 2026-05-07 05:53 | 26.24938 | -62.55857 | 38137 ft | 455 kts | 298° |
| 2026-05-07 05:54 | 26.27903 | -62.62110 | 38126 ft | 457 kts | 298° |
| 2026-05-07 05:54 | 26.30870 | -62.68375 | 38125 ft | 457 kts | 298° |
| 2026-05-07 05:55 | 26.33815 | -62.74605 | 38123 ft | 456 kts | 298° |
| 2026-05-07 05:55 | 26.36761 | -62.80845 | 38120 ft | 454 kts | 298° |
| 2026-05-07 05:56 | 26.39696 | -62.87074 | 38113 ft | 453 kts | 299° |
| 2026-05-07 05:56 | 26.42622 | -62.93286 | 38123 ft | 452 kts | 299° |
| 2026-05-07 05:57 | 26.45540 | -62.99493 | 38127 ft | 451 kts | 299° |
| 2026-05-07 05:57 | 26.48453 | -63.05698 | 38128 ft | 451 kts | 299° |
| 2026-05-07 05:58 | 26.51365 | -63.11910 | 38122 ft | 452 kts | 299° |
| 2026-05-07 05:58 | 26.54281 | -63.18141 | 38122 ft | 453 kts | 299° |
| 2026-05-07 05:59 | 26.57180 | -63.24341 | 38130 ft | 454 kts | 300° |
| 2026-05-07 05:59 | 26.60109 | -63.30615 | 38126 ft | 456 kts | 300° |
| 2026-05-07 06:00 | 26.63043 | -63.36913 | 38124 ft | 457 kts | 300° |
| 2026-05-07 06:00 | 26.65983 | -63.43233 | 38125 ft | 458 kts | 300° |
| 2026-05-07 06:01 | 26.68925 | -63.49564 | 38121 ft | 458 kts | 300° |
| 2026-05-07 06:01 | 26.71862 | -63.55892 | 38124 ft | 459 kts | 300° |
| 2026-05-07 06:02 | 26.74779 | -63.62189 | 38122 ft | 459 kts | 300° |
| 2026-05-07 06:02 | 26.77710 | -63.68524 | 38121 ft | 458 kts | 300° |
| 2026-05-07 06:03 | 26.80167 | -63.73842 | 38314 ft | 460 kts | 300° |
| 2026-05-07 06:03 | 26.81618 | -63.77029 | 38684 ft | 458 kts | 299° |
| 2026-05-07 06:03 | 26.83010 | -63.80223 | 39070 ft | 455 kts | 298° |
| 2026-05-07 06:03 | 26.84365 | -63.83402 | 39498 ft | 450 kts | 298° |
| 2026-05-07 06:04 | 26.85682 | -63.86514 | 39936 ft | 444 kts | 298° |
| 2026-05-07 06:04 | 26.86998 | -63.89622 | 40121 ft | 438 kts | 299° |
| 2026-05-07 06:04 | 26.88297 | -63.92678 | 40111 ft | 431 kts | 299° |
| 2026-05-07 06:05 | 26.90862 | -63.98686 | 40114 ft | 426 kts | 299° |
| 2026-05-07 06:05 | 26.93432 | -64.04689 | 40127 ft | 429 kts | 299° |
| 2026-05-07 06:06 | 26.96014 | -64.10730 | 40133 ft | 431 kts | 299° |
| 2026-05-07 06:06 | 26.98606 | -64.16808 | 40129 ft | 432 kts | 299° |
| 2026-05-07 06:07 | 27.01179 | -64.22853 | 40125 ft | 433 kts | 299° |
| 2026-05-07 06:07 | 27.03768 | -64.28944 | 40120 ft | 432 kts | 299° |
| 2026-05-07 06:08 | 27.06349 | -64.35029 | 40127 ft | 431 kts | 299° |
| 2026-05-07 06:08 | 27.08921 | -64.41098 | 40118 ft | 429 kts | 300° |
| 2026-05-07 06:09 | 27.11478 | -64.47140 | 40120 ft | 428 kts | 300° |
| 2026-05-07 06:09 | 27.14029 | -64.53176 | 40122 ft | 427 kts | 300° |
| 2026-05-07 06:10 | 27.16572 | -64.59203 | 40122 ft | 426 kts | 300° |
| 2026-05-07 06:10 | 27.19090 | -64.65177 | 40125 ft | 426 kts | 300° |
| 2026-05-07 06:11 | 27.21618 | -64.71186 | 40123 ft | 425 kts | 300° |
| 2026-05-07 06:11 | 27.24146 | -64.77203 | 40123 ft | 426 kts | 300° |
| 2026-05-07 06:12 | 27.26675 | -64.83233 | 40123 ft | 426 kts | 300° |
| 2026-05-07 06:12 | 27.29201 | -64.89264 | 40124 ft | 427 kts | 300° |
| 2026-05-07 06:13 | 27.31729 | -64.95308 | 40124 ft | 427 kts | 300° |
| 2026-05-07 06:13 | 27.34260 | -65.01364 | 40114 ft | 427 kts | 300° |
| 2026-05-07 06:14 | 27.36785 | -65.07409 | 40125 ft | 427 kts | 300° |
| 2026-05-07 06:14 | 27.39313 | -65.13472 | 40126 ft | 428 kts | 299° |
| 2026-05-07 06:15 | 27.41836 | -65.19534 | 40125 ft | 428 kts | 299° |
| 2026-05-07 06:15 | 27.44345 | -65.25571 | 40125 ft | 428 kts | 299° |
| 2026-05-07 06:16 | 27.46865 | -65.31644 | 40107 ft | 427 kts | 299° |
| 2026-05-07 06:16 | 27.49374 | -65.37701 | 40126 ft | 427 kts | 299° |
| 2026-05-07 06:17 | 27.51886 | -65.43772 | 40125 ft | 427 kts | 299° |
| 2026-05-07 06:17 | 27.54391 | -65.49836 | 40125 ft | 426 kts | 299° |
| 2026-05-07 06:18 | 27.56875 | -65.55858 | 40141 ft | 426 kts | 299° |
| 2026-05-07 06:18 | 27.59371 | -65.61917 | 40103 ft | 426 kts | 300° |
| 2026-05-07 06:19 | 27.61857 | -65.67965 | 40123 ft | 425 kts | 300° |
| 2026-05-07 06:19 | 27.64340 | -65.74010 | 40128 ft | 424 kts | 300° |
| 2026-05-07 06:20 | 27.66813 | -65.80042 | 40128 ft | 423 kts | 300° |
| 2026-05-07 06:20 | 27.69281 | -65.86071 | 40126 ft | 423 kts | 300° |
| 2026-05-07 06:21 | 27.71743 | -65.92094 | 40125 ft | 422 kts | 300° |
| 2026-05-07 06:21 | 27.74184 | -65.98075 | 40115 ft | 422 kts | 300° |
| 2026-05-07 06:22 | 27.76634 | -66.04086 | 40125 ft | 421 kts | 300° |
| 2026-05-07 06:22 | 27.80297 | -66.13092 | 40126 ft | 421 kts | 300° |
| 2026-05-07 06:23 | 27.82739 | -66.19106 | 40125 ft | 421 kts | 300° |
| 2026-05-07 06:23 | 27.85175 | -66.25114 | 40106 ft | 421 kts | 300° |
| 2026-05-07 06:24 | 27.87607 | -66.31123 | 40135 ft | 420 kts | 299° |
| 2026-05-07 06:24 | 27.90021 | -66.37097 | 40136 ft | 420 kts | 299° |
| 2026-05-07 06:25 | 27.92444 | -66.43101 | 40136 ft | 419 kts | 299° |
| 2026-05-07 06:25 | 27.94862 | -66.49102 | 40119 ft | 419 kts | 299° |
| 2026-05-07 06:26 | 27.97275 | -66.55099 | 40135 ft | 419 kts | 299° |
| 2026-05-07 06:26 | 27.99689 | -66.61108 | 40130 ft | 419 kts | 299° |
| 2026-05-07 06:27 | 28.02093 | -66.67102 | 40131 ft | 418 kts | 299° |
| 2026-05-07 06:27 | 28.04494 | -66.73099 | 40132 ft | 418 kts | 299° |
| 2026-05-07 06:28 | 28.06888 | -66.79086 | 40136 ft | 417 kts | 299° |
| 2026-05-07 06:28 | 28.09279 | -66.85075 | 40135 ft | 417 kts | 299° |
| 2026-05-07 06:29 | 28.11666 | -66.91062 | 40123 ft | 416 kts | 299° |
| 2026-05-07 06:29 | 28.14041 | -66.97031 | 40128 ft | 415 kts | 299° |
| 2026-05-07 06:30 | 28.16396 | -67.02955 | 40134 ft | 414 kts | 299° |
| 2026-05-07 06:30 | 28.18678 | -67.08706 | 40132 ft | 413 kts | 299° |
| 2026-05-07 06:31 | 28.21031 | -67.14646 | 40132 ft | 413 kts | 299° |
| 2026-05-07 06:31 | 28.23383 | -67.20589 | 40130 ft | 413 kts | 299° |
| 2026-05-07 06:32 | 28.25728 | -67.26528 | 40124 ft | 412 kts | 299° |
| 2026-05-07 06:32 | 28.28067 | -67.32458 | 40126 ft | 411 kts | 299° |
| 2026-05-07 06:33 | 28.30399 | -67.38380 | 40130 ft | 411 kts | 299° |
| 2026-05-07 06:33 | 28.32726 | -67.44300 | 40130 ft | 411 kts | 299° |
| 2026-05-07 06:34 | 28.35050 | -67.50219 | 40132 ft | 410 kts | 299° |
| 2026-05-07 06:34 | 28.37354 | -67.56115 | 40113 ft | 410 kts | 299° |
| 2026-05-07 06:35 | 28.39646 | -67.62045 | 40123 ft | 410 kts | 299° |
| 2026-05-07 06:35 | 28.41932 | -67.67976 | 40127 ft | 409 kts | 299° |
| 2026-05-07 06:36 | 28.42495 | -67.69435 | 40132 ft | 409 kts | 299° |
| 2026-05-07 06:42 | 28.43168 | -67.71178 | 39981 ft | 413 kts | 297° |
| 2026-05-07 06:42 | 28.44307 | -67.74140 | 40110 ft | 408 kts | 299° |
| 2026-05-07 06:42 | 28.45447 | -67.77105 | 40110 ft | 410 kts | 299° |
| 2026-05-07 06:43 | 28.47735 | -67.83052 | 40127 ft | 412 kts | 299° |
| 2026-05-07 06:43 | 28.50036 | -67.89042 | 40134 ft | 414 kts | 299° |
| 2026-05-07 06:44 | 28.52010 | -67.94190 | 40127 ft | 414 kts | 299° |
| 2026-05-07 06:44 | 28.54310 | -68.00201 | 40127 ft | 414 kts | 299° |
| 2026-05-07 06:45 | 28.56606 | -68.06208 | 40133 ft | 413 kts | 299° |
| 2026-05-07 06:45 | 28.58886 | -68.12186 | 40124 ft | 411 kts | 299° |
| 2026-05-07 06:46 | 28.61154 | -68.18138 | 40128 ft | 409 kts | 299° |
| 2026-05-07 06:46 | 28.63408 | -68.24065 | 40118 ft | 407 kts | 299° |
| 2026-05-07 06:47 | 28.65654 | -68.29979 | 40122 ft | 406 kts | 299° |
| 2026-05-07 06:47 | 28.67879 | -68.35843 | 40131 ft | 406 kts | 299° |
| 2026-05-07 06:48 | 28.70113 | -68.41743 | 40126 ft | 406 kts | 299° |
| 2026-05-07 06:48 | 28.72349 | -68.47657 | 40125 ft | 407 kts | 299° |
| 2026-05-07 06:49 | 28.74589 | -68.53590 | 40115 ft | 408 kts | 299° |
| 2026-05-07 06:49 | 28.76829 | -68.59537 | 40128 ft | 408 kts | 299° |
| 2026-05-07 06:50 | 28.79072 | -68.65500 | 40124 ft | 409 kts | 299° |
| 2026-05-07 06:50 | 28.81312 | -68.71462 | 40124 ft | 410 kts | 299° |
| 2026-05-07 06:51 | 28.83561 | -68.77439 | 40124 ft | 410 kts | 299° |
| 2026-05-07 06:51 | 28.85823 | -68.83412 | 40122 ft | 410 kts | 299° |
| 2026-05-07 06:52 | 28.88087 | -68.89393 | 40115 ft | 410 kts | 299° |
| 2026-05-07 06:52 | 28.90341 | -68.95366 | 40122 ft | 410 kts | 299° |
| 2026-05-07 06:53 | 28.92593 | -69.01344 | 40130 ft | 410 kts | 299° |
| 2026-05-07 06:53 | 28.94842 | -69.07325 | 40121 ft | 410 kts | 299° |
| 2026-05-07 06:54 | 28.97085 | -69.13299 | 40117 ft | 409 kts | 299° |
| 2026-05-07 06:54 | 28.99326 | -69.19279 | 40122 ft | 409 kts | 299° |
| 2026-05-07 06:55 | 29.01548 | -69.25218 | 40128 ft | 409 kts | 298° |
| 2026-05-07 06:55 | 29.03782 | -69.31198 | 40129 ft | 409 kts | 298° |
| 2026-05-07 06:56 | 29.06012 | -69.37175 | 40132 ft | 409 kts | 298° |
| 2026-05-07 06:56 | 29.08238 | -69.43153 | 40117 ft | 409 kts | 298° |
| 2026-05-07 06:57 | 29.10465 | -69.49142 | 40115 ft | 409 kts | 298° |
| 2026-05-07 06:57 | 29.12690 | -69.55137 | 40120 ft | 409 kts | 298° |
| 2026-05-07 06:58 | 29.14908 | -69.61123 | 40120 ft | 409 kts | 298° |
| 2026-05-07 06:58 | 29.17111 | -69.67077 | 40120 ft | 409 kts | 298° |
| 2026-05-07 06:59 | 29.19326 | -69.73075 | 40117 ft | 409 kts | 298° |
| 2026-05-07 06:59 | 29.21540 | -69.79078 | 40121 ft | 409 kts | 298° |
| 2026-05-07 07:00 | 29.23754 | -69.85091 | 40122 ft | 409 kts | 298° |
| 2026-05-07 07:00 | 29.25961 | -69.91096 | 40117 ft | 409 kts | 298° |
| 2026-05-07 07:01 | 29.28167 | -69.97107 | 40120 ft | 409 kts | 298° |
| 2026-05-07 07:01 | 29.30357 | -70.03084 | 40120 ft | 409 kts | 298° |
| 2026-05-07 07:02 | 29.32558 | -70.09102 | 40118 ft | 410 kts | 298° |
| 2026-05-07 07:02 | 29.34757 | -70.15125 | 40121 ft | 410 kts | 298° |
| 2026-05-07 07:03 | 29.36953 | -70.21149 | 40109 ft | 410 kts | 297° |
| 2026-05-07 07:03 | 29.39149 | -70.27184 | 40117 ft | 410 kts | 297° |
| 2026-05-07 07:04 | 29.41340 | -70.33215 | 40120 ft | 410 kts | 297° |
| 2026-05-07 07:04 | 29.43533 | -70.39260 | 40117 ft | 410 kts | 297° |
| 2026-05-07 07:05 | 29.45721 | -70.45304 | 40114 ft | 410 kts | 297° |
| 2026-05-07 07:05 | 29.47905 | -70.51346 | 40117 ft | 410 kts | 297° |
| 2026-05-07 07:06 | 29.50090 | -70.57399 | 40121 ft | 410 kts | 297° |
| 2026-05-07 07:06 | 29.52269 | -70.63447 | 40116 ft | 410 kts | 297° |
| 2026-05-07 07:07 | 29.54433 | -70.69466 | 40117 ft | 409 kts | 297° |
| 2026-05-07 07:07 | 29.56602 | -70.75506 | 40117 ft | 409 kts | 297° |
| 2026-05-07 07:08 | 29.58768 | -70.81549 | 40116 ft | 409 kts | 297° |
| 2026-05-07 07:08 | 29.60929 | -70.87589 | 40114 ft | 409 kts | 297° |
| 2026-05-07 07:09 | 29.63089 | -70.93633 | 40114 ft | 409 kts | 296° |
| 2026-05-07 07:09 | 29.65245 | -70.99678 | 40115 ft | 409 kts | 296° |
| 2026-05-07 07:10 | 29.67403 | -71.05739 | 40115 ft | 409 kts | 296° |
| 2026-05-07 07:10 | 29.69556 | -71.11799 | 40118 ft | 410 kts | 296° |
| 2026-05-07 07:11 | 29.71711 | -71.17871 | 40118 ft | 410 kts | 296° |
| 2026-05-07 07:11 | 29.73852 | -71.23916 | 40117 ft | 411 kts | 296° |
| 2026-05-07 07:12 | 29.76007 | -71.30012 | 40117 ft | 411 kts | 296° |
| 2026-05-07 07:12 | 29.78161 | -71.36114 | 40117 ft | 411 kts | 296° |
| 2026-05-07 07:13 | 29.80313 | -71.42220 | 40117 ft | 411 kts | 296° |
| 2026-05-07 07:13 | 29.82462 | -71.48330 | 40117 ft | 411 kts | 296° |
| 2026-05-07 07:14 | 29.84607 | -71.54438 | 40115 ft | 412 kts | 296° |
| 2026-05-07 07:14 | 29.86738 | -71.60516 | 40110 ft | 412 kts | 296° |
| 2026-05-07 07:15 | 29.88879 | -71.66635 | 40120 ft | 412 kts | 296° |
| 2026-05-07 07:15 | 29.91016 | -71.72755 | 40116 ft | 412 kts | 296° |
| 2026-05-07 07:16 | 29.93153 | -71.78881 | 40113 ft | 412 kts | 296° |
| 2026-05-07 07:16 | 29.95287 | -71.85012 | 40115 ft | 412 kts | 296° |
| 2026-05-07 07:17 | 29.97419 | -71.91148 | 40122 ft | 412 kts | 295° |
| 2026-05-07 07:17 | 29.99548 | -71.97285 | 40115 ft | 412 kts | 295° |
| 2026-05-07 07:18 | 30.01670 | -72.03416 | 40115 ft | 411 kts | 295° |
| 2026-05-07 07:18 | 30.03792 | -72.09554 | 40114 ft | 411 kts | 295° |
| 2026-05-07 07:19 | 30.05898 | -72.15658 | 40109 ft | 411 kts | 295° |
| 2026-05-07 07:19 | 30.08008 | -72.21784 | 40112 ft | 411 kts | 295° |
| 2026-05-07 07:20 | 30.10117 | -72.27918 | 40105 ft | 411 kts | 295° |
| 2026-05-07 07:20 | 30.12211 | -72.34022 | 40113 ft | 411 kts | 295° |
| 2026-05-07 07:21 | 30.14317 | -72.40167 | 40109 ft | 411 kts | 295° |
| 2026-05-07 07:21 | 30.16363 | -72.46344 | 40107 ft | 413 kts | 292° |
| 2026-05-07 07:22 | 30.18159 | -72.52654 | 40113 ft | 413 kts | 292° |
| 2026-05-07 07:22 | 30.19933 | -72.58985 | 40109 ft | 414 kts | 292° |
| 2026-05-07 07:23 | 30.21710 | -72.65314 | 40113 ft | 414 kts | 292° |
| 2026-05-07 07:23 | 30.23479 | -72.71602 | 40109 ft | 413 kts | 292° |
| 2026-05-07 07:24 | 30.25258 | -72.77931 | 40103 ft | 413 kts | 292° |
| 2026-05-07 07:24 | 30.27033 | -72.84256 | 40102 ft | 413 kts | 292° |
| 2026-05-07 07:25 | 30.29689 | -72.93745 | 40109 ft | 413 kts | 292° |
| 2026-05-07 07:26 | 30.31453 | -73.00061 | 40106 ft | 413 kts | 291° |
| 2026-05-07 07:26 | 30.33213 | -73.06382 | 40103 ft | 413 kts | 291° |
| 2026-05-07 07:27 | 30.34970 | -73.12701 | 40103 ft | 413 kts | 291° |
| 2026-05-07 07:27 | 30.36713 | -73.18985 | 40102 ft | 413 kts | 291° |
| 2026-05-07 07:28 | 30.38466 | -73.25317 | 40102 ft | 413 kts | 291° |
| 2026-05-07 07:28 | 30.40219 | -73.31661 | 40090 ft | 413 kts | 291° |
| 2026-05-07 07:29 | 30.41968 | -73.38008 | 40102 ft | 414 kts | 290° |
| 2026-05-07 07:29 | 30.43722 | -73.44384 | 40099 ft | 415 kts | 290° |
| 2026-05-07 07:30 | 30.45463 | -73.50728 | 40099 ft | 416 kts | 290° |
| 2026-05-07 07:30 | 30.47215 | -73.57124 | 40112 ft | 416 kts | 290° |
| 2026-05-07 07:31 | 30.48964 | -73.63525 | 40097 ft | 416 kts | 290° |
| 2026-05-07 07:31 | 30.50414 | -73.68840 | 40088 ft | 416 kts | 290° |
| 2026-05-07 07:32 | 30.52153 | -73.75229 | 40096 ft | 415 kts | 290° |
| 2026-05-07 07:32 | 30.53890 | -73.81622 | 40092 ft | 415 kts | 290° |
| 2026-05-07 07:33 | 30.55624 | -73.88020 | 40093 ft | 416 kts | 290° |
| 2026-05-07 07:33 | 30.57357 | -73.94426 | 40090 ft | 416 kts | 290° |
| 2026-05-07 07:34 | 30.59089 | -74.00841 | 40097 ft | 416 kts | 289° |
| 2026-05-07 07:34 | 30.60808 | -74.07235 | 40090 ft | 418 kts | 289° |
| 2026-05-07 07:35 | 30.62540 | -74.13684 | 40088 ft | 418 kts | 289° |
| 2026-05-07 07:35 | 30.64270 | -74.20138 | 40090 ft | 419 kts | 289° |
| 2026-05-07 07:36 | 30.66000 | -74.26613 | 40085 ft | 420 kts | 289° |
| 2026-05-07 07:36 | 30.67728 | -74.33092 | 40087 ft | 420 kts | 289° |
| 2026-05-07 07:37 | 30.69455 | -74.39579 | 40088 ft | 420 kts | 289° |
| 2026-05-07 07:37 | 30.71168 | -74.46033 | 40083 ft | 420 kts | 288° |
| 2026-05-07 07:38 | 30.72886 | -74.52518 | 40084 ft | 420 kts | 288° |
| 2026-05-07 07:38 | 30.74601 | -74.59004 | 40081 ft | 419 kts | 288° |
| 2026-05-07 07:39 | 30.76310 | -74.65484 | 40079 ft | 419 kts | 288° |
| 2026-05-07 07:39 | 30.78015 | -74.71963 | 40079 ft | 419 kts | 288° |
| 2026-05-07 07:40 | 30.79718 | -74.78447 | 40076 ft | 419 kts | 288° |
| 2026-05-07 07:40 | 30.81415 | -74.84926 | 40074 ft | 419 kts | 288° |
| 2026-05-07 07:41 | 30.83111 | -74.91411 | 40074 ft | 419 kts | 288° |
| 2026-05-07 07:41 | 30.84792 | -74.97856 | 40076 ft | 419 kts | 288° |
| 2026-05-07 07:42 | 30.86479 | -75.04342 | 40076 ft | 419 kts | 288° |
| 2026-05-07 07:42 | 30.88166 | -75.10835 | 40074 ft | 418 kts | 288° |
| 2026-05-07 07:43 | 30.89845 | -75.17318 | 40070 ft | 418 kts | 288° |
| 2026-05-07 07:43 | 30.91520 | -75.23799 | 40068 ft | 417 kts | 288° |
| 2026-05-07 07:44 | 30.93188 | -75.30267 | 40067 ft | 417 kts | 288° |
| 2026-05-07 07:44 | 30.94849 | -75.36725 | 40067 ft | 416 kts | 288° |
| 2026-05-07 07:45 | 30.96507 | -75.43182 | 40078 ft | 416 kts | 288° |
| 2026-05-07 07:45 | 30.98150 | -75.49598 | 40076 ft | 415 kts | 288° |
| 2026-05-07 07:46 | 30.99792 | -75.56025 | 40054 ft | 413 kts | 288° |
| 2026-05-07 07:46 | 31.01429 | -75.62447 | 40057 ft | 412 kts | 288° |
| 2026-05-07 07:47 | 31.03058 | -75.68851 | 40069 ft | 411 kts | 288° |
| 2026-05-07 07:47 | 31.04681 | -75.75246 | 40069 ft | 411 kts | 288° |
| 2026-05-07 07:48 | 31.06300 | -75.81640 | 40060 ft | 410 kts | 287° |
| 2026-05-07 07:48 | 31.07901 | -75.87976 | 40062 ft | 410 kts | 287° |
| 2026-05-07 07:49 | 31.09507 | -75.94349 | 40052 ft | 409 kts | 287° |
| 2026-05-07 07:49 | 31.11106 | -76.00708 | 40053 ft | 408 kts | 287° |
| 2026-05-07 07:50 | 31.12702 | -76.07070 | 40049 ft | 408 kts | 287° |
| 2026-05-07 07:50 | 31.14296 | -76.13435 | 40050 ft | 408 kts | 287° |
| 2026-05-07 07:51 | 31.15873 | -76.19749 | 40052 ft | 408 kts | 287° |
| 2026-05-07 07:51 | 31.17457 | -76.26109 | 40048 ft | 407 kts | 287° |
| 2026-05-07 07:52 | 31.19035 | -76.32454 | 40049 ft | 407 kts | 287° |
| 2026-05-07 07:52 | 31.20611 | -76.38810 | 40044 ft | 407 kts | 287° |
| 2026-05-07 07:53 | 31.22182 | -76.45156 | 40048 ft | 406 kts | 287° |
| 2026-05-07 07:53 | 31.23749 | -76.51506 | 40054 ft | 406 kts | 287° |
| 2026-05-07 07:54 | 31.25312 | -76.57849 | 40047 ft | 406 kts | 287° |
| 2026-05-07 07:54 | 31.26871 | -76.64197 | 40040 ft | 406 kts | 287° |
| 2026-05-07 07:55 | 31.28420 | -76.70513 | 40039 ft | 406 kts | 287° |
| 2026-05-07 07:55 | 31.29973 | -76.76862 | 40038 ft | 406 kts | 287° |
| 2026-05-07 07:56 | 31.31524 | -76.83221 | 40042 ft | 406 kts | 287° |
| 2026-05-07 07:56 | 31.33073 | -76.89583 | 40037 ft | 407 kts | 286° |
| 2026-05-07 07:57 | 31.34761 | -76.95890 | 40031 ft | 406 kts | 294° |
| 2026-05-07 07:57 | 31.37682 | -77.01550 | 40033 ft | 408 kts | 303° |
| 2026-05-07 07:58 | 31.41584 | -77.06429 | 40079 ft | 414 kts | 314° |
| 2026-05-07 07:58 | 31.45925 | -77.10875 | 40037 ft | 414 kts | 314° |
| 2026-05-07 07:59 | 31.50237 | -77.15325 | 40025 ft | 412 kts | 313° |
| 2026-05-07 07:59 | 31.54510 | -77.19795 | 40023 ft | 411 kts | 313° |
| 2026-05-07 08:00 | 31.58758 | -77.24261 | 40024 ft | 410 kts | 313° |
| 2026-05-07 08:00 | 31.62972 | -77.28693 | 40020 ft | 409 kts | 313° |
| 2026-05-07 08:01 | 31.67208 | -77.33151 | 40022 ft | 408 kts | 313° |
| 2026-05-07 08:01 | 31.71438 | -77.37606 | 40020 ft | 408 kts | 313° |
| 2026-05-07 08:02 | 31.75668 | -77.42067 | 40030 ft | 409 kts | 313° |
| 2026-05-07 08:02 | 31.79899 | -77.46536 | 40004 ft | 409 kts | 313° |
| 2026-05-07 08:03 | 31.84127 | -77.51008 | 40022 ft | 409 kts | 313° |
| 2026-05-07 08:03 | 31.88358 | -77.55488 | 40017 ft | 409 kts | 313° |
| 2026-05-07 08:04 | 31.92557 | -77.59941 | 40017 ft | 409 kts | 313° |
| 2026-05-07 08:04 | 31.96783 | -77.64428 | 40001 ft | 409 kts | 313° |
| 2026-05-07 08:05 | 32.01007 | -77.68917 | 40001 ft | 409 kts | 313° |
| 2026-05-07 08:05 | 32.05241 | -77.73420 | 40014 ft | 409 kts | 312° |
| 2026-05-07 08:06 | 32.09470 | -77.77925 | 40010 ft | 409 kts | 312° |
| 2026-05-07 08:06 | 32.13664 | -77.82398 | 40002 ft | 409 kts | 312° |
| 2026-05-07 08:07 | 32.17517 | -77.87248 | 40002 ft | 401 kts | 302° |
| 2026-05-07 08:07 | 32.20495 | -77.92790 | 40002 ft | 399 kts | 295° |
| 2026-05-07 08:08 | 32.22600 | -77.98825 | 40002 ft | 397 kts | 289° |
| 2026-05-07 08:08 | 32.24567 | -78.04929 | 39998 ft | 398 kts | 290° |
| 2026-05-07 08:09 | 32.26574 | -78.11027 | 39995 ft | 399 kts | 290° |
| 2026-05-07 08:09 | 32.28579 | -78.17138 | 39996 ft | 399 kts | 290° |
| 2026-05-07 08:10 | 32.30580 | -78.23266 | 39993 ft | 400 kts | 290° |
| 2026-05-07 08:10 | 32.32581 | -78.29402 | 39991 ft | 400 kts | 290° |
| 2026-05-07 08:11 | 32.34580 | -78.35541 | 39993 ft | 400 kts | 290° |
| 2026-05-07 08:11 | 32.36571 | -78.41643 | 39993 ft | 400 kts | 290° |
| 2026-05-07 08:12 | 32.38574 | -78.47781 | 39987 ft | 399 kts | 290° |
| 2026-05-07 08:12 | 32.40572 | -78.53920 | 39986 ft | 399 kts | 290° |
| 2026-05-07 08:13 | 32.42559 | -78.60041 | 39986 ft | 398 kts | 290° |
| 2026-05-07 08:13 | 32.44542 | -78.66159 | 39986 ft | 398 kts | 289° |
| 2026-05-07 08:14 | 32.46519 | -78.72272 | 39977 ft | 397 kts | 289° |
| 2026-05-07 08:14 | 32.48482 | -78.78353 | 39982 ft | 398 kts | 289° |
| 2026-05-07 08:15 | 32.50456 | -78.84478 | 39978 ft | 398 kts | 289° |
| 2026-05-07 08:15 | 32.52432 | -78.90606 | 39978 ft | 398 kts | 289° |
| 2026-05-07 08:16 | 32.54408 | -78.96740 | 39978 ft | 399 kts | 289° |
| 2026-05-07 08:16 | 32.56384 | -79.02886 | 39978 ft | 399 kts | 289° |
| 2026-05-07 08:17 | 32.58348 | -79.09010 | 39973 ft | 399 kts | 289° |
| 2026-05-07 08:17 | 32.60321 | -79.15172 | 39974 ft | 400 kts | 289° |
| 2026-05-07 08:18 | 32.62290 | -79.21338 | 39973 ft | 400 kts | 289° |
| 2026-05-07 08:18 | 32.64274 | -79.27559 | 39973 ft | 401 kts | 289° |
| 2026-05-07 08:19 | 32.66232 | -79.33713 | 39975 ft | 401 kts | 289° |
| 2026-05-07 08:19 | 32.68198 | -79.39905 | 39975 ft | 401 kts | 289° |
| 2026-05-07 08:20 | 32.70162 | -79.46100 | 39975 ft | 401 kts | 289° |
| 2026-05-07 08:20 | 32.71807 | -79.51300 | 40010 ft | 401 kts | 288° |
| 2026-05-07 08:21 | 32.73756 | -79.57472 | 39982 ft | 402 kts | 289° |
| 2026-05-07 08:21 | 32.75823 | -79.63649 | 39972 ft | 403 kts | 290° |
| 2026-05-07 08:22 | 32.77938 | -79.69815 | 39972 ft | 403 kts | 290° |
| 2026-05-07 08:22 | 32.80038 | -79.75987 | 39972 ft | 403 kts | 290° |
| 2026-05-07 08:23 | 32.82127 | -79.82168 | 39972 ft | 403 kts | 289° |
| 2026-05-07 08:23 | 32.84213 | -79.88359 | 39974 ft | 403 kts | 289° |
| 2026-05-07 08:24 | 32.86297 | -79.94552 | 39971 ft | 403 kts | 289° |
| 2026-05-07 08:24 | 32.88317 | -80.00719 | 39975 ft | 402 kts | 286° |
| 2026-05-07 08:25 | 32.89684 | -80.07155 | 39977 ft | 401 kts | 280° |
| 2026-05-07 08:25 | 32.90402 | -80.13776 | 39980 ft | 401 kts | 276° |
| 2026-05-07 08:26 | 32.91316 | -80.23645 | 39969 ft | 402 kts | 276° |
| 2026-05-07 08:26 | 32.91934 | -80.30264 | 39968 ft | 402 kts | 276° |
| 2026-05-07 08:27 | 32.92557 | -80.36885 | 39967 ft | 402 kts | 276° |
| 2026-05-07 08:27 | 32.93178 | -80.43501 | 39965 ft | 402 kts | 276° |
| 2026-05-07 08:28 | 32.93796 | -80.50120 | 39964 ft | 402 kts | 276° |
| 2026-05-07 08:28 | 32.94408 | -80.56709 | 39955 ft | 403 kts | 276° |
| 2026-05-07 08:29 | 32.95019 | -80.63338 | 39991 ft | 402 kts | 276° |
| 2026-05-07 08:29 | 32.95627 | -80.69957 | 39992 ft | 402 kts | 276° |
| 2026-05-07 08:30 | 32.96231 | -80.76581 | 39987 ft | 402 kts | 276° |
| 2026-05-07 08:30 | 32.96832 | -80.83210 | 39982 ft | 402 kts | 276° |
| 2026-05-07 08:31 | 32.97429 | -80.89837 | 39975 ft | 402 kts | 275° |
| 2026-05-07 08:31 | 32.98023 | -80.96464 | 39970 ft | 402 kts | 275° |
| 2026-05-07 08:32 | 32.98612 | -81.03083 | 39978 ft | 402 kts | 275° |
| 2026-05-07 08:32 | 32.99197 | -81.09697 | 39984 ft | 401 kts | 275° |
| 2026-05-07 08:33 | 32.99779 | -81.16304 | 39991 ft | 401 kts | 275° |
| 2026-05-07 08:33 | 33.00353 | -81.22869 | 39990 ft | 401 kts | 275° |
| 2026-05-07 08:34 | 33.00927 | -81.29477 | 39992 ft | 401 kts | 275° |
| 2026-05-07 08:34 | 33.01498 | -81.36089 | 39993 ft | 401 kts | 275° |
| 2026-05-07 08:35 | 33.02065 | -81.42705 | 39987 ft | 402 kts | 275° |
| 2026-05-07 08:35 | 33.02630 | -81.49333 | 39975 ft | 402 kts | 275° |
| 2026-05-07 08:36 | 33.03190 | -81.55930 | 39965 ft | 403 kts | 275° |
| 2026-05-07 08:36 | 33.03749 | -81.62579 | 39948 ft | 403 kts | 275° |
| 2026-05-07 08:37 | 33.04306 | -81.69228 | 39944 ft | 403 kts | 275° |
| 2026-05-07 08:37 | 33.04859 | -81.75886 | 39948 ft | 403 kts | 275° |
| 2026-05-07 08:38 | 33.05408 | -81.82529 | 39946 ft | 403 kts | 275° |
| 2026-05-07 08:38 | 33.05947 | -81.89183 | 39951 ft | 403 kts | 274° |
| 2026-05-07 08:39 | 33.06446 | -81.95829 | 39948 ft | 403 kts | 274° |
| 2026-05-07 08:39 | 33.06936 | -82.02442 | 39948 ft | 403 kts | 274° |
| 2026-05-07 08:40 | 33.07429 | -82.09101 | 39951 ft | 402 kts | 274° |
| 2026-05-07 08:40 | 33.07919 | -82.15751 | 39949 ft | 402 kts | 274° |
| 2026-05-07 08:41 | 33.08406 | -82.22402 | 39953 ft | 402 kts | 274° |
| 2026-05-07 08:41 | 33.08890 | -82.29051 | 39951 ft | 402 kts | 274° |
| 2026-05-07 08:42 | 33.09370 | -82.35698 | 39950 ft | 402 kts | 274° |
| 2026-05-07 08:42 | 33.09845 | -82.42325 | 39939 ft | 401 kts | 274° |
| 2026-05-07 08:43 | 33.10313 | -82.48892 | 39618 ft | 387 kts | 274° |
| 2026-05-07 08:43 | 33.10534 | -82.52006 | 38772 ft | 374 kts | 274° |
| 2026-05-07 08:43 | 33.10751 | -82.55085 | 37474 ft | 372 kts | 274° |
| 2026-05-07 08:44 | 33.10966 | -82.58151 | 36188 ft | 370 kts | 274° |
| 2026-05-07 08:44 | 33.11179 | -82.61199 | 34906 ft | 369 kts | 274° |
| 2026-05-07 08:44 | 33.11390 | -82.64238 | 33625 ft | 368 kts | 274° |
| 2026-05-07 08:44 | 33.11601 | -82.67268 | 32341 ft | 365 kts | 274° |
| 2026-05-07 08:45 | 33.11809 | -82.70261 | 31203 ft | 359 kts | 274° |
| 2026-05-07 08:45 | 33.12012 | -82.73204 | 30152 ft | 353 kts | 274° |
| 2026-05-07 08:45 | 33.12212 | -82.76108 | 28974 ft | 347 kts | 274° |
| 2026-05-07 08:45 | 33.12407 | -82.78949 | 27835 ft | 341 kts | 274° |
| 2026-05-07 08:46 | 33.12600 | -82.81775 | 27502 ft | 332 kts | 274° |
| 2026-05-07 08:46 | 33.12786 | -82.84484 | 27435 ft | 326 kts | 274° |
| 2026-05-07 08:46 | 33.12971 | -82.87177 | 27028 ft | 326 kts | 274° |
| 2026-05-07 08:46 | 33.13156 | -82.89878 | 26503 ft | 327 kts | 274° |
| 2026-05-07 08:47 | 33.13342 | -82.92599 | 25927 ft | 330 kts | 275° |
| 2026-05-07 08:47 | 33.13528 | -82.95339 | 25432 ft | 331 kts | 275° |
| 2026-05-07 08:47 | 33.13713 | -82.98066 | 25044 ft | 328 kts | 275° |
| 2026-05-07 08:47 | 33.13896 | -83.00770 | 24686 ft | 325 kts | 275° |
| 2026-05-07 08:48 | 33.14073 | -83.03408 | 24316 ft | 322 kts | 275° |
| 2026-05-07 08:48 | 33.14252 | -83.06066 | 23929 ft | 321 kts | 275° |
| 2026-05-07 08:48 | 33.14429 | -83.08716 | 23554 ft | 319 kts | 275° |
| 2026-05-07 08:48 | 33.14605 | -83.11348 | 23119 ft | 318 kts | 275° |
| 2026-05-07 08:49 | 33.14780 | -83.13968 | 22689 ft | 316 kts | 275° |
| 2026-05-07 08:49 | 33.14953 | -83.16578 | 22269 ft | 314 kts | 275° |
| 2026-05-07 08:49 | 33.15126 | -83.19183 | 21775 ft | 315 kts | 275° |
| 2026-05-07 08:49 | 33.15297 | -83.21784 | 21378 ft | 313 kts | 275° |
| 2026-05-07 08:50 | 33.15467 | -83.24363 | 21030 ft | 310 kts | 275° |
| 2026-05-07 08:50 | 33.15634 | -83.26914 | 20676 ft | 307 kts | 274° |
| 2026-05-07 08:50 | 33.15795 | -83.29377 | 20315 ft | 305 kts | 274° |
| 2026-05-07 08:50 | 33.15959 | -83.31907 | 20299 ft | 311 kts | 274° |
| 2026-05-07 08:51 | 33.16133 | -83.34595 | 18622 ft | 334 kts | 274° |
| 2026-05-07 08:51 | 33.16308 | -83.37281 | 18002 ft | 313 kts | 273° |
| 2026-05-07 08:51 | 33.16471 | -83.39795 | 17340 ft | 295 kts | 273° |
| 2026-05-07 08:51 | 33.16625 | -83.42185 | 16556 ft | 284 kts | 272° |
| 2026-05-07 08:52 | 33.16773 | -83.44502 | 15707 ft | 277 kts | 272° |
| 2026-05-07 08:52 | 33.16913 | -83.46779 | 14795 ft | 273 kts | 271° |
| 2026-05-07 08:52 | 33.17048 | -83.49027 | 13928 ft | 273 kts | 271° |
| 2026-05-07 08:52 | 33.17184 | -83.51319 | 13451 ft | 276 kts | 271° |
| 2026-05-07 08:53 | 33.17320 | -83.53582 | 13212 ft | 270 kts | 270° |
| 2026-05-07 08:53 | 33.17454 | -83.55797 | 12925 ft | 266 kts | 270° |
| 2026-05-07 08:53 | 33.17586 | -83.57990 | 12541 ft | 264 kts | 270° |
| 2026-05-07 08:53 | 33.17715 | -83.60175 | 12179 ft | 263 kts | 270° |
| 2026-05-07 08:54 | 33.17845 | -83.62347 | 11824 ft | 262 kts | 270° |
| 2026-05-07 08:54 | 33.17972 | -83.64510 | 11483 ft | 260 kts | 270° |
| 2026-05-07 08:54 | 33.18099 | -83.66659 | 11163 ft | 258 kts | 269° |
| 2026-05-07 08:54 | 33.18225 | -83.68790 | 10842 ft | 257 kts | 269° |
| 2026-05-07 08:55 | 33.18351 | -83.70913 | 10506 ft | 255 kts | 269° |
| 2026-05-07 08:55 | 33.18475 | -83.73024 | 10161 ft | 255 kts | 269° |
| 2026-05-07 08:55 | 33.18600 | -83.75136 | 9853 ft | 254 kts | 269° |
| 2026-05-07 08:55 | 33.18727 | -83.77207 | 9477 ft | 253 kts | 269° |
| 2026-05-07 08:56 | 33.18857 | -83.79295 | 9173 ft | 251 kts | 269° |
| 2026-05-07 08:56 | 33.19093 | -83.81336 | 8766 ft | 252 kts | 281° |
| 2026-05-07 08:56 | 33.19911 | -83.83256 | 8293 ft | 267 kts | 296° |
| 2026-05-07 08:56 | 33.21160 | -83.84948 | 7973 ft | 273 kts | 304° |
| 2026-05-07 08:57 | 33.22521 | -83.86527 | 7620 ft | 272 kts | 306° |
| 2026-05-07 08:57 | 33.23870 | -83.88066 | 7577 ft | 262 kts | 305° |
| 2026-05-07 08:57 | 33.25176 | -83.89596 | 7624 ft | 266 kts | 304° |
| 2026-05-07 08:57 | 33.26510 | -83.91182 | 7625 ft | 274 kts | 304° |
| 2026-05-07 08:58 | 33.27847 | -83.92763 | 7616 ft | 264 kts | 304° |
| 2026-05-07 08:58 | 33.29119 | -83.94263 | 7623 ft | 250 kts | 303° |
| 2026-05-07 08:58 | 33.30324 | -83.95699 | 7631 ft | 245 kts | 303° |
| 2026-05-07 08:58 | 33.31535 | -83.97158 | 7641 ft | 248 kts | 303° |
| 2026-05-07 08:59 | 33.32748 | -83.98609 | 7533 ft | 245 kts | 303° |
| 2026-05-07 08:59 | 33.33939 | -84.00030 | 7268 ft | 237 kts | 303° |
| 2026-05-07 08:59 | 33.35088 | -84.01400 | 6895 ft | 232 kts | 302° |
| 2026-05-07 08:59 | 33.36355 | -84.02565 | 6532 ft | 248 kts | 323° |
| 2026-05-07 09:00 | 33.38144 | -84.02965 | 6032 ft | 275 kts | 346° |
| 2026-05-07 09:00 | 33.40101 | -84.02979 | 5618 ft | 278 kts | 347° |
| 2026-05-07 09:00 | 33.42008 | -84.03006 | 5284 ft | 277 kts | 347° |
| 2026-05-07 09:00 | 33.43957 | -84.03041 | 4969 ft | 275 kts | 347° |
| 2026-05-07 09:01 | 33.45861 | -84.03076 | 4687 ft | 272 kts | 347° |
| 2026-05-07 09:01 | 33.47679 | -84.03228 | 4563 ft | 251 kts | 338° |
| 2026-05-07 09:01 | 33.49312 | -84.03590 | 4483 ft | 232 kts | 334° |
| 2026-05-07 09:01 | 33.50355 | -84.03875 | 4373 ft | 222 kts | 332° |
| 2026-05-07 09:02 | 33.52321 | -84.04455 | 4020 ft | 220 kts | 332° |
| 2026-05-07 09:02 | 33.53340 | -84.04753 | 3983 ft | 224 kts | 333° |
| 2026-05-07 09:02 | 33.54855 | -84.05138 | 3976 ft | 220 kts | 343° |
| 2026-05-07 09:02 | 33.56805 | -84.05348 | 3955 ft | 201 kts | 346° |
| 2026-05-07 09:03 | 33.58128 | -84.05576 | 3950 ft | 184 kts | 339° |
| 2026-05-07 09:03 | 33.59357 | -84.05876 | 4005 ft | 178 kts | 335° |
| 2026-05-07 09:03 | 33.60361 | -84.06554 | 3970 ft | 156 kts | 295° |
| 2026-05-07 09:03 | 33.60695 | -84.07690 | 3999 ft | 143 kts | 274° |
| 2026-05-07 09:04 | 33.60925 | -84.08894 | 3997 ft | 151 kts | 277° |
| 2026-05-07 09:04 | 33.61166 | -84.10116 | 3981 ft | 148 kts | 276° |
| 2026-05-07 09:04 | 33.61392 | -84.11317 | 3965 ft | 147 kts | 275° |
| 2026-05-07 09:04 | 33.61611 | -84.12504 | 3961 ft | 146 kts | 275° |
| 2026-05-07 09:05 | 33.61823 | -84.13694 | 3961 ft | 148 kts | 275° |
| 2026-05-07 09:05 | 33.62039 | -84.14910 | 3964 ft | 149 kts | 276° |
| 2026-05-07 09:05 | 33.62184 | -84.15734 | 3970 ft | 150 kts | 275° |
| 2026-05-07 09:05 | 33.62463 | -84.17368 | 3992 ft | 152 kts | 275° |
| 2026-05-07 09:06 | 33.62675 | -84.18592 | 3982 ft | 148 kts | 275° |
| 2026-05-07 09:06 | 33.62814 | -84.19384 | 3972 ft | 147 kts | 275° |
| 2026-05-07 09:06 | 33.63019 | -84.20608 | 3981 ft | 152 kts | 275° |
| 2026-05-07 09:06 | 33.63144 | -84.22271 | 3975 ft | 144 kts | 268° |
| 2026-05-07 09:07 | 33.63161 | -84.23039 | 3966 ft | 133 kts | 267° |
| 2026-05-07 09:07 | 33.63176 | -84.24124 | 3831 ft | 128 kts | 263° |
| 2026-05-07 09:07 | 33.63190 | -84.25218 | 3668 ft | 132 kts | 266° |
| 2026-05-07 09:07 | 33.63189 | -84.26707 | 3463 ft | 140 kts | 264° |
| 2026-05-07 09:08 | 33.63180 | -84.27866 | 3268 ft | 134 kts | 264° |
| 2026-05-07 09:08 | 33.63181 | -84.28606 | 3147 ft | 126 kts | 265° |
| 2026-05-07 09:08 | 33.63178 | -84.29626 | 2987 ft | 121 kts | 272° |
| 2026-05-07 09:08 | 33.63195 | -84.30656 | 2835 ft | 125 kts | 270° |
| 2026-05-07 09:09 | 33.63190 | -84.30997 | 2781 ft | 126 kts | 266° |
| 2026-05-07 09:09 | 33.63170 | -84.32778 | 2517 ft | 129 kts | 270° |
| 2026-05-07 09:09 | 33.63181 | -84.33875 | 2340 ft | 131 kts | 268° |
| 2026-05-07 09:09 | 33.63181 | -84.34968 | 2155 ft | 130 kts | 268° |
| 2026-05-07 09:10 | 33.63182 | -84.36042 | 2000 ft | 129 kts | 268° |
| 2026-05-07 09:10 | 33.63182 | -84.37116 | 1825 ft | 131 kts | 268° |
| 2026-05-07 09:10 | 33.63183 | -84.38232 | 1656 ft | 135 kts | 267° |
| 2026-05-07 09:10 | 33.63183 | -84.39426 | 1457 ft | 149 kts | 269° |
| 2026-05-07 09:11 | 33.63211 | -84.40676 | 1240 ft | 148 kts | 264° |
| 2026-05-07 09:11 | 33.63190 | -84.41914 | 1064 ft | 149 kts | 265° |
| 2026-05-07 09:11 | 33.63181 | -84.43050 | 1042 ft | 114 kts | 270° |
| 2026-05-07 09:11 | 33.63182 | -84.43780 | 1025 ft | 61 kts | 270° |
| 2026-05-07 09:12 | 33.63207 | -84.44097 | 1023 ft | 27 kts | 288° |
| 2026-05-07 09:12 | 33.63265 | -84.44238 | 1019 ft | 11 kts | 301° |
| 2026-05-07 09:12 | 33.63323 | -84.44259 | 1017 ft | 9 kts | 23° |
| 2026-05-07 09:12 | 33.63353 | -84.44234 | 1017 ft | 2 kts | 44° |
| 2026-05-07 09:13 | 33.63359 | -84.44217 | 1019 ft | 2 kts | 73° |
| 2026-05-07 09:13 | 33.63360 | -84.44193 | 1019 ft | 5 kts | 86° |
| 2026-05-07 09:13 | 33.63361 | -84.44133 | 1019 ft | 10 kts | 89° |
| 2026-05-07 09:13 | 33.63361 | -84.44030 | 1019 ft | 15 kts | 90° |
| 2026-05-07 09:14 | 33.63361 | -84.43887 | 1019 ft | 18 kts | 89° |
| 2026-05-07 09:14 | 33.63362 | -84.43736 | 1019 ft | 18 kts | 90° |
| 2026-05-07 09:14 | 33.63363 | -84.43585 | 1019 ft | 18 kts | 89° |
| 2026-05-07 09:14 | 33.63362 | -84.43433 | 1020 ft | 18 kts | 91° |
| 2026-05-07 09:15 | 33.63362 | -84.43285 | 1040 ft | 18 kts | 91° |
| 2026-05-07 09:15 | 33.63361 | -84.43152 | 1040 ft | 15 kts | 89° |
| 2026-05-07 09:15 | 33.63363 | -84.43028 | 1040 ft | 15 kts | 90° |
| 2026-05-07 09:15 | 33.63363 | -84.42916 | 1041 ft | 11 kts | 89° |
| 2026-05-07 09:16 | 33.63398 | -84.42854 | 1041 ft | 10 kts | 13° |
| 2026-05-07 09:16 | 33.63466 | -84.42849 | 1041 ft | 10 kts | 359° |
| 2026-05-07 09:16 | 33.63533 | -84.42849 | 1040 ft | 9 kts | 4° |
| 2026-05-07 09:16 | 33.63573 | -84.42806 | 1040 ft | 8 kts | 68° |
| 2026-05-07 09:17 | 33.63581 | -84.42739 | 1040 ft | 8 kts | 86° |
| 2026-05-07 09:17 | 33.63583 | -84.42670 | 1041 ft | 8 kts | 89° |
| 2026-05-07 09:17 | 33.63583 | -84.42602 | 1041 ft | 8 kts | 91° |
| 2026-05-07 09:17 | 33.63582 | -84.42534 | 1041 ft | 8 kts | 90° |
| 2026-05-07 09:18 | 33.63582 | -84.42465 | 1041 ft | 9 kts | 90° |
| 2026-05-07 09:18 | 33.63582 | -84.42378 | 1041 ft | 10 kts | 90° |
| 2026-05-07 09:18 | 33.63582 | -84.42291 | 1041 ft | 10 kts | 89° |
| 2026-05-07 09:18 | 33.63582 | -84.42204 | 1041 ft | 10 kts | 90° |
| 2026-05-07 09:19 | 33.63582 | -84.42117 | 1041 ft | 10 kts | 90° |
| 2026-05-07 09:19 | 33.63582 | -84.42030 | 1041 ft | 10 kts | 90° |
| 2026-05-07 09:19 | 33.63583 | -84.41943 | 1040 ft | 10 kts | 89° |
| 2026-05-07 09:19 | 33.63583 | -84.41859 | 1040 ft | 7 kts | 91° |
| 2026-05-07 09:20 | 33.63600 | -84.41808 | 1040 ft | 7 kts | 36° |
| 2026-05-07 09:20 | 33.63649 | -84.41809 | 1040 ft | 7 kts | 345° |
| 2026-05-07 09:20 | 33.63697 | -84.41823 | 1040 ft | 7 kts | 351° |
| 2026-05-07 09:20 | 33.63747 | -84.41825 | 1040 ft | 7 kts | 359° |
| 2026-05-07 09:21 | 33.63797 | -84.41826 | 1040 ft | 7 kts | 358° |
| 2026-05-07 09:21 | 33.63843 | -84.41832 | 1040 ft | 7 kts | 340° |
| 2026-05-07 09:21 | 33.63866 | -84.41871 | 1040 ft | 6 kts | 281° |
| 2026-05-07 09:21 | 33.63875 | -84.41903 | 1040 ft | 2 kts | 289° |
| 2026-05-07 09:22 | 33.63879 | -84.41917 | 1040 ft | 0 kts | 289° |